Time;durP1;ratioP1;P1;durP2;ratioP2;P2;SDS_P1;SDS_P2;PMS_P1;PMS_P2;Temp;Humidity;BMP_temperature;BMP_pressure;BME280_temperature;BME280_humidity;BME280_pressure;Samples;Min_cycle;Max_cycle;Signal;HPM_P1;HPM_P2
2022/01/09 00:04:27;;;;;;;0.57;0.40;;;;;;;;;;10429913;28;20513;-85
2022/01/09 00:09:42;;;;;;;0.98;0.50;;;;;;;;;;10429018;28;20042;-86
2022/01/09 00:14:45;;;;;;;0.52;0.40;;;;;;;;;;10426069;28;20029;-85
2022/01/09 00:19:46;;;;;;;0.70;0.40;;;;;;;;;;10461970;28;20033;-85
2022/01/09 00:24:47;;;;;;;0.40;0.40;;;;;;;;;;10429653;28;20101;-86
2022/01/09 00:29:48;;;;;;;0.80;0.40;;;;;;;;;;10426728;28;20042;-85
2022/01/09 00:34:49;;;;;;;0.47;0.40;;;;;;;;;;10427034;28;20030;-85
2022/01/09 00:39:51;;;;;;;1.38;0.50;;;;;;;;;;10427506;28;20132;-85
2022/01/09 00:44:52;;;;;;;0.73;0.45;;;;;;;;;;10462000;28;20029;-85
2022/01/09 00:49:54;;;;;;;0.90;0.50;;;;;;;;;;10455029;28;20080;-86
2022/01/09 00:54:55;;;;;;;0.40;0.30;;;;;;;;;;10432661;28;20168;-86
2022/01/09 00:59:56;;;;;;;0.80;0.40;;;;;;;;;;10431474;28;20033;-85
2022/01/09 01:04:57;;;;;;;;;;;;;;;;;;10431353;28;20041;-86
2022/01/09 01:09:58;;;;;;;0.63;0.40;;;;;;;;;;10413390;28;19916;-86
2022/01/09 01:14:59;;;;;;;0.50;0.45;;;;;;;;;;10432479;28;20083;-84
2022/01/09 01:20:00;;;;;;;0.68;0.40;;;;;;;;;;10431470;28;20037;-85
2022/01/09 01:25:01;;;;;;;0.30;0.30;;;;;;;;;;10431433;28;20105;-85
2022/01/09 01:30:03;;;;;;;0.60;0.40;;;;;;;;;;10431703;28;20038;-85
2022/01/09 01:35:04;;;;;;;0.40;0.30;;;;;;;;;;10431898;28;20033;-86
2022/01/09 01:40:05;;;;;;;;;;;;;;;;;;10432526;28;20132;-85
2022/01/09 01:45:07;;;;;;;0.45;0.45;;;;;;;;;;10416022;28;20281;-86
2022/01/09 01:50:09;;;;;;;0.45;0.40;;;;;;;;;;10431228;28;20037;-86
2022/01/09 01:55:11;;;;;;;0.77;0.32;;;;;;;;;;10431534;28;20033;-86
2022/01/09 02:00:14;;;;;;;0.40;0.40;;;;;;;;;;10431605;28;20041;-85
2022/01/09 02:05:15;;;;;;;0.73;0.40;;;;;;;;;;10429267;28;20115;-86
2022/01/09 02:10:16;;;;;;;0.45;0.30;;;;;;;;;;10427121;28;20037;-85
2022/01/09 02:15:26;;;;;;;0.30;0.30;;;;;;;;;;10426812;28;20083;-86
2022/01/09 02:20:28;;;;;;;0.52;0.40;;;;;;;;;;10423651;28;20033;-86
2022/01/09 02:25:29;;;;;;;0.60;0.40;;;;;;;;;;10421158;28;20042;-86
2022/01/09 02:30:32;;;;;;;0.30;0.30;;;;;;;;;;10425854;28;20408;-86
2022/01/09 02:35:34;;;;;;;0.47;0.30;;;;;;;;;;10423350;28;20518;-85
2022/01/09 02:40:35;;;;;;;0.68;0.40;;;;;;;;;;10455476;28;20113;-86
2022/01/09 02:45:36;;;;;;;;;;;;;;;;;;10429236;28;20068;-86
2022/01/09 02:50:42;;;;;;;0.40;0.30;;;;;;;;;;10409750;28;20314;-86
2022/01/09 02:55:44;;;;;;;0.47;0.40;;;;;;;;;;10425881;28;20036;-86
2022/01/09 03:00:45;;;;;;;0.90;0.52;;;;;;;;;;10426199;28;20518;-86
2022/01/09 03:05:46;;;;;;;;;;;;;;;;;;10427129;28;20036;-86
2022/01/09 03:10:47;;;;;;;2.40;0.45;;;;;;;;;;10408080;28;19905;-86
2022/01/09 03:15:48;;;;;;;1.77;1.30;;;;;;;;;;10426196;28;20080;-86
2022/01/09 03:20:49;;;;;;;2.42;1.25;;;;;;;;;;10425877;28;20500;-85
2022/01/09 03:25:50;;;;;;;1.77;1.42;;;;;;;;;;10428828;28;20128;-85
2022/01/09 03:30:51;;;;;;;1.83;1.20;;;;;;;;;;10427656;28;20030;-85
2022/01/09 03:35:52;;;;;;;1.48;1.00;;;;;;;;;;10425124;28;20479;-85
2022/01/09 03:40:53;;;;;;;1.00;0.90;;;;;;;;;;10424746;28;20037;-85
2022/01/09 03:45:54;;;;;;;1.10;0.80;;;;;;;;;;10429423;28;20034;-85
2022/01/09 03:50:55;;;;;;;1.23;0.70;;;;;;;;;;10430740;28;20045;-85
2022/01/09 03:55:56;;;;;;;1.27;0.52;;;;;;;;;;10430348;28;20097;-85
2022/01/09 04:00:57;;;;;;;0.75;0.50;;;;;;;;;;10430687;28;20048;-85
2022/01/09 04:06:00;;;;;;;2.58;0.60;;;;;;;;;;10427828;28;20044;-85
2022/01/09 04:11:03;;;;;;;1.23;0.63;;;;;;;;;;10434105;28;20030;-85
2022/01/09 04:16:04;;;;;;;1.40;0.50;;;;;;;;;;10433470;28;20029;-86
2022/01/09 04:21:05;;;;;;;2.13;0.70;;;;;;;;;;10430797;28;20041;-86
2022/01/09 04:26:06;;;;;;;0.90;0.43;;;;;;;;;;10428811;28;20060;-85
2022/01/09 04:31:07;;;;;;;2.05;0.50;;;;;;;;;;10426986;28;20080;-85
2022/01/09 04:36:08;;;;;;;3.10;1.17;;;;;;;;;;10424673;28;20029;-85
2022/01/09 04:41:09;;;;;;;;;;;;;;;;;;10424315;28;20061;-85
2022/01/09 04:46:13;;;;;;;3.08;0.93;;;;;;;;;;10431748;28;19921;-86
2022/01/09 04:51:15;;;;;;;6.13;1.85;;;;;;;;;;10466813;28;20056;-85
2022/01/09 04:56:16;;;;;;;7.78;2.30;;;;;;;;;;10421230;28;20045;-85
2022/01/09 05:01:17;;;;;;;6.45;2.15;;;;;;;;;;10459280;28;20038;-85
2022/01/09 05:06:19;;;;;;;13.73;3.97;;;;;;;;;;10449784;28;20037;-86
2022/01/09 05:11:20;;;;;;;13.77;3.03;;;;;;;;;;10449808;28;20032;-86
2022/01/09 05:16:21;;;;;;;14.65;3.45;;;;;;;;;;10450143;28;20041;-86
2022/01/09 05:21:22;;;;;;;12.05;2.97;;;;;;;;;;10439943;28;20400;-86
2022/01/09 05:26:23;;;;;;;18.15;4.00;;;;;;;;;;10437116;28;20029;-86
2022/01/09 05:31:24;;;;;;;8.52;2.28;;;;;;;;;;10437697;28;20446;-86
2022/01/09 05:36:25;;;;;;;7.88;2.00;;;;;;;;;;10436902;28;20057;-87
2022/01/09 05:41:26;;;;;;;7.22;1.73;;;;;;;;;;10467119;28;20032;-86
2022/01/09 05:46:27;;;;;;;7.93;2.03;;;;;;;;;;10461333;28;20044;-86
2022/01/09 05:51:28;;;;;;;15.95;9.18;;;;;;;;;;10459425;28;20072;-85
2022/01/09 05:56:30;;;;;;;7.13;1.92;;;;;;;;;;10458605;28;20090;-86
2022/01/09 06:01:31;;;;;;;;;;;;;;;;;;10459862;28;20029;-86
2022/01/09 06:06:35;;;;;;;6.83;1.77;;;;;;;;;;10460352;28;19908;-86
2022/01/09 06:11:36;;;;;;;7.20;1.60;;;;;;;;;;10460726;28;20096;-86
2022/01/09 06:16:37;;;;;;;4.82;1.40;;;;;;;;;;10458344;28;20036;-86
2022/01/09 06:21:38;;;;;;;4.15;1.40;;;;;;;;;;10457879;28;20053;-86
2022/01/09 06:26:39;;;;;;;8.77;2.67;;;;;;;;;;10457121;28;20063;-86
2022/01/09 06:31:40;;;;;;;6.13;1.70;;;;;;;;;;10455948;28;20033;-85
2022/01/09 06:36:41;;;;;;;10.10;2.50;;;;;;;;;;10457208;28;20099;-86
2022/01/09 06:41:42;;;;;;;10.02;2.40;;;;;;;;;;10455749;28;20033;-86
2022/01/09 06:46:43;;;;;;;8.57;1.98;;;;;;;;;;10455419;28;20072;-86
2022/01/09 06:51:46;;;;;;;8.27;2.17;;;;;;;;;;10454549;28;20466;-85
2022/01/09 06:56:47;;;;;;;9.55;2.25;;;;;;;;;;10455056;28;20075;-86
2022/01/09 07:01:48;;;;;;;8.32;2.00;;;;;;;;;;10449987;28;20037;-85
2022/01/09 07:06:49;;;;;;;8.40;2.20;;;;;;;;;;10446634;28;20045;-84
2022/01/09 07:11:50;;;;;;;9.23;2.15;;;;;;;;;;10444516;28;20033;-85
2022/01/09 07:16:51;;;;;;;6.57;1.75;;;;;;;;;;10446567;28;20037;-84
2022/01/09 07:21:52;;;;;;;9.43;2.00;;;;;;;;;;10483891;28;20041;-86
2022/01/09 07:26:53;;;;;;;7.15;1.80;;;;;;;;;;10460291;28;20033;-86
2022/01/09 07:31:55;;;;;;;7.15;1.80;;;;;;;;;;10453762;28;20100;-86
2022/01/09 07:36:56;;;;;;;6.80;1.45;;;;;;;;;;10454643;28;20491;-85
2022/01/09 07:41:57;;;;;;;4.65;1.23;;;;;;;;;;10460635;28;20037;-85
2022/01/09 07:46:58;;;;;;;7.63;2.25;;;;;;;;;;10465530;28;20029;-85
2022/01/09 07:52:00;;;;;;;5.72;1.83;;;;;;;;;;10482905;28;20475;-86
2022/01/09 07:57:01;;;;;;;;;;;;;;;;;;10463940;28;20041;-86
2022/01/09 08:02:02;;;;;;;7.05;1.90;;;;;;;;;;10457584;28;19904;-86
2022/01/09 08:07:03;;;;;;;8.35;2.15;;;;;;;;;;10457511;28;20041;-85
2022/01/09 08:12:04;;;;;;;5.57;1.63;;;;;;;;;;10455629;28;20031;-86
2022/01/09 08:17:05;;;;;;;8.75;1.88;;;;;;;;;;10456660;28;20071;-86
2022/01/09 08:22:07;;;;;;;6.50;1.67;;;;;;;;;;10454414;28;20037;-86
2022/01/09 08:27:09;;;;;;;6.60;1.88;;;;;;;;;;10453305;28;20036;-86
2022/01/09 08:32:12;;;;;;;6.95;2.00;;;;;;;;;;10454400;28;20135;-85
2022/01/09 08:37:13;;;;;;;5.25;1.77;;;;;;;;;;10449986;28;20036;-85
2022/01/09 08:42:14;;;;;;;;;;;;;;;;;;10450775;28;20136;-86
2022/01/09 08:47:15;;;;;;;8.60;2.38;;;;;;;;;;10469667;28;19984;-87
2022/01/09 08:52:16;;;;;;;5.57;1.67;;;;;;;;;;10492311;28;20045;-87
2022/01/09 08:57:17;;;;;;;7.07;2.78;;;;;;;;;;10483124;28;20029;-87
2022/01/09 09:02:18;;;;;;;7.20;2.88;;;;;;;;;;10453036;28;20052;-86
2022/01/09 09:07:23;;;;;;;9.45;2.95;;;;;;;;;;10452241;28;20054;-87
2022/01/09 09:12:24;;;;;;;6.78;2.20;;;;;;;;;;10453073;28;20368;-86
2022/01/09 09:17:25;;;;;;;5.55;1.85;;;;;;;;;;10455593;28;20044;-86
2022/01/09 09:22:26;;;;;;;9.65;2.50;;;;;;;;;;10450714;28;20033;-86
2022/01/09 09:27:30;;;;;;;6.60;2.25;;;;;;;;;;10450137;28;20033;-86
2022/01/09 09:32:31;;;;;;;4.40;1.65;;;;;;;;;;10450089;28;20029;-86
2022/01/09 09:37:32;;;;;;;5.63;1.92;;;;;;;;;;10454156;28;20071;-85
2022/01/09 09:42:34;;;;;;;5.57;2.00;;;;;;;;;;10479416;28;20068;-86
2022/01/09 09:47:35;;;;;;;5.72;2.30;;;;;;;;;;10454530;28;20375;-86
2022/01/09 09:52:36;;;;;;;5.10;2.00;;;;;;;;;;10457054;28;20045;-87
2022/01/09 09:57:37;;;;;;;;;;;;;;;;;;10455595;28;20033;-87
2022/01/09 10:02:43;;;;;;;6.68;2.13;;;;;;;;;;10459011;28;20380;-86
2022/01/09 10:07:44;;;;;;;6.57;2.22;;;;;;;;;;10453982;28;20036;-87
2022/01/09 10:12:46;;;;;;;4.70;1.58;;;;;;;;;;10455552;28;20037;-86
2022/01/09 10:17:56;;;;;;;6.35;2.30;;;;;;;;;;10453739;28;20108;-87
2022/01/09 10:22:57;;;;;;;3.47;1.58;;;;;;;;;;10454756;28;20406;-86
2022/01/09 10:28:04;;;;;;;4.47;1.45;;;;;;;;;;10455034;28;20068;-86
2022/01/09 10:33:07;;;;;;;6.88;2.38;;;;;;;;;;10454327;28;20025;-87
2022/01/09 10:38:08;;;;;;;4.80;1.80;;;;;;;;;;10454930;28;20063;-86
2022/01/09 10:43:14;;;;;;;5.75;2.03;;;;;;;;;;10453382;28;20044;-87
2022/01/09 10:48:20;;;;;;;6.38;3.65;;;;;;;;;;10454326;28;20108;-87
2022/01/09 10:53:21;;;;;;;6.05;2.20;;;;;;;;;;10452402;28;20132;-86
2022/01/09 10:58:23;;;;;;;11.73;2.53;;;;;;;;;;10452512;28;20041;-87
2022/01/09 11:03:24;;;;;;;4.88;2.20;;;;;;;;;;10459281;28;20029;-87
2022/01/09 11:08:25;;;;;;;9.15;2.10;;;;;;;;;;10452068;28;20040;-87
2022/01/09 11:13:26;;;;;;;;;;;;;;;;;;10452614;28;20036;-86
2022/01/09 11:18:27;;;;;;;5.75;2.28;;;;;;;;;;10460905;28;19904;-87
2022/01/09 11:23:34;;;;;;;7.78;2.85;;;;;;;;;;10483790;28;20052;-87
2022/01/09 11:28:36;;;;;;;7.20;2.10;;;;;;;;;;10460346;28;20178;-87
2022/01/09 11:33:37;;;;;;;6.68;2.47;;;;;;;;;;10459872;28;20060;-87
2022/01/09 11:38:50;;;;;;;3.35;1.17;;;;;;;;;;10459833;28;20124;-87
2022/01/09 11:43:59;;;;;;;3.83;1.40;;;;;;;;;;10461356;28;20041;-87
2022/01/09 11:49:06;;;;;;;3.92;1.55;;;;;;;;;;10458214;28;20045;-86
2022/01/09 11:54:15;;;;;;;4.60;2.08;;;;;;;;;;10463772;28;20044;-86
2022/01/09 11:59:30;;;;;;;8.38;3.53;;;;;;;;;;10468728;28;20029;-86
2022/01/09 12:04:31;;;;;;;6.03;2.50;;;;;;;;;;10480000;28;20064;-86
2022/01/09 12:09:32;;;;;;;;;;;;;;;;;;10469026;28;20481;-87
2022/01/09 12:14:45;;;;;;;8.00;2.75;;;;;;;;;;10469023;28;20023;-87
2022/01/09 12:20:05;;;;;;;7.60;2.67;;;;;;;;;;10468549;28;20041;-86
2022/01/09 12:25:07;;;;;;;6.78;2.83;;;;;;;;;;10469084;28;20037;-86
2022/01/09 12:30:09;;;;;;;7.40;2.35;;;;;;;;;;10468139;28;20037;-87
2022/01/09 12:35:20;;;;;;;7.82;1.98;;;;;;;;;;10474039;28;20045;-86
2022/01/09 12:40:22;;;;;;;5.20;1.95;;;;;;;;;;10465698;28;20036;-86
2022/01/09 12:45:23;;;;;;;6.80;2.70;;;;;;;;;;10467179;28;20040;-87
2022/01/09 12:50:29;;;;;;;8.00;2.00;;;;;;;;;;10493872;28;20049;-86
2022/01/09 12:55:31;;;;;;;4.03;1.60;;;;;;;;;;10479929;28;20434;-85
2022/01/09 13:00:32;;;;;;;3.88;1.70;;;;;;;;;;10470031;28;20398;-85
2022/01/09 13:05:34;;;;;;;4.28;1.20;;;;;;;;;;10468218;28;20037;-87
2022/01/09 13:10:35;;;;;;;6.75;2.20;;;;;;;;;;10462435;28;20060;-86
2022/01/09 13:15:37;;;;;;;4.53;1.90;;;;;;;;;;10465771;28;20036;-86
2022/01/09 13:20:38;;;;;;;5.20;1.73;;;;;;;;;;10464262;28;20446;-86
2022/01/09 13:25:43;;;;;;;5.82;2.00;;;;;;;;;;10463802;28;20044;-86
2022/01/09 13:30:44;;;;;;;4.93;1.92;;;;;;;;;;10467473;28;20036;-86
2022/01/09 13:35:45;;;;;;;4.13;1.63;;;;;;;;;;10468479;28;20033;-86
2022/01/09 13:40:46;;;;;;;2.92;1.25;;;;;;;;;;10467030;28;20029;-87
2022/01/09 13:45:47;;;;;;;;;;;;;;;;;;10468790;28;20047;-85
2022/01/09 13:50:49;;;;;;;7.13;2.33;;;;;;;;;;10472783;28;19913;-87
2022/01/09 13:55:50;;;;;;;3.40;1.42;;;;;;;;;;10471175;28;20032;-87
2022/01/09 14:00:51;;;;;;;5.30;2.38;;;;;;;;;;10472841;28;20060;-87
2022/01/09 14:05:52;;;;;;;;;;;;;;;;;;10470730;28;20033;-87
2022/01/09 14:10:55;;;;;;;5.00;2.38;;;;;;;;;;10466610;28;20348;-85
2022/01/09 14:16:30;;;;;;;5.20;2.13;;;;;;;;;;10458711;28;20131;-86
2022/01/09 14:21:31;;;;;;;7.82;5.38;;;;;;;;;;10443289;28;20029;-87
2022/01/09 14:26:32;;;;;;;6.75;2.40;;;;;;;;;;10470757;28;20037;-86
2022/01/09 14:31:33;;;;;;;;;;;;;;;;;;10474244;28;20066;-87
2022/01/09 14:36:35;;;;;;;4.03;1.77;;;;;;;;;;10459775;28;19968;-87
2022/01/09 14:41:37;;;;;;;4.95;1.70;;;;;;;;;;10455981;28;20116;-86
2022/01/09 14:46:39;;;;;;;5.47;1.75;;;;;;;;;;10457126;28;20400;-86
2022/01/09 14:51:40;;;;;;;4.55;1.70;;;;;;;;;;10451454;28;20411;-86
2022/01/09 14:56:41;;;;;;;3.92;1.50;;;;;;;;;;10454024;28;20033;-86
2022/01/09 15:01:42;;;;;;;3.08;1.30;;;;;;;;;;10468787;28;20058;-86
2022/01/09 15:06:43;;;;;;;;;;;;;;;;;;10451741;28;20032;-86
2022/01/09 15:11:44;;;;;;;4.43;1.73;;;;;;;;;;10449647;28;19905;-86
2022/01/09 15:16:45;;;;;;;4.18;1.67;;;;;;;;;;10455392;28;20214;-87
2022/01/09 15:21:46;;;;;;;;;;;;;;;;;;10452710;28;20061;-86
2022/01/09 15:26:47;;;;;;;3.38;1.98;;;;;;;;;;10457333;28;19908;-86
2022/01/09 15:31:48;;;;;;;;;;;;;;;;;;10454767;28;20060;-86
2022/01/09 15:36:49;;;;;;;5.43;2.10;;;;;;;;;;10453677;28;19911;-87
2022/01/09 15:41:50;;;;;;;;;;;;;;;;;;10455705;28;20131;-86
2022/01/09 15:46:51;;;;;;;3.83;1.70;;;;;;;;;;10451505;28;19908;-86
2022/01/09 15:51:52;;;;;;;3.03;1.40;;;;;;;;;;10451508;28;20109;-86
2022/01/09 15:56:53;;;;;;;;;;;;;;;;;;10454416;28;20075;-86
2022/01/09 16:01:54;;;;;;;4.03;1.60;;;;;;;;;;10455452;28;19911;-86
2022/01/09 16:06:55;;;;;;;3.55;1.60;;;;;;;;;;10473198;28;20398;-86
2022/01/09 16:12:01;;;;;;;;;;;;;;;;;;10473109;28;20041;-87
2022/01/09 16:17:02;;;;;;;3.45;1.40;;;;;;;;;;10472567;28;20024;-86
2022/01/09 16:22:05;;;;;;;4.50;1.80;;;;;;;;;;10465642;28;20065;-87
2022/01/09 16:27:06;;;;;;;2.97;1.20;;;;;;;;;;10460545;28;20495;-86
2022/01/09 16:32:07;;;;;;;;;;;;;;;;;;10455820;28;20033;-86
2022/01/09 16:37:08;;;;;;;3.85;1.38;;;;;;;;;;10459177;28;19888;-87
2022/01/09 16:42:09;;;;;;;;;;;;;;;;;;10484348;28;20140;-86
2022/01/09 16:47:11;;;;;;;4.85;2.25;;;;;;;;;;10465562;28;19908;-86
2022/01/09 16:52:12;;;;;;;3.20;1.65;;;;;;;;;;10487352;28;20123;-86
2022/01/09 16:57:13;;;;;;;;;;;;;;;;;;10489058;28;20037;-86
2022/01/09 17:02:14;;;;;;;5.38;2.42;;;;;;;;;;10484599;28;19905;-87
2022/01/09 17:07:15;;;;;;;;;;;;;;;;;;10475106;28;20124;-87
2022/01/09 17:12:16;;;;;;;4.15;2.08;;;;;;;;;;10461678;28;19993;-87
2022/01/09 17:17:21;;;;;;;4.10;1.95;;;;;;;;;;10456560;28;20044;-86
2022/01/09 17:22:22;;;;;;;3.22;1.73;;;;;;;;;;10452028;28;20033;-86
2022/01/09 17:27:23;;;;;;;;;;;;;;;;;;10452160;28;20072;-86
2022/01/09 17:32:24;;;;;;;2.90;1.70;;;;;;;;;;10453816;28;19982;-86
2022/01/09 17:37:25;;;;;;;;;;;;;;;;;;10451443;28;20136;-86
2022/01/09 17:42:26;;;;;;;5.03;1.80;;;;;;;;;;10455382;28;19909;-86
2022/01/09 17:47:30;;;;;;;3.90;2.40;;;;;;;;;;10453628;28;20402;-86
2022/01/09 17:52:31;;;;;;;4.18;2.80;;;;;;;;;;10453068;28;20047;-86
2022/01/09 17:57:33;;;;;;;;;;;;;;;;;;10452331;28;20132;-87
2022/01/09 18:02:34;;;;;;;6.68;5.05;;;;;;;;;;10450793;28;19957;-86
2022/01/09 18:07:35;;;;;;;7.30;5.60;;;;;;;;;;10452338;28;20094;-85
2022/01/09 18:12:36;;;;;;;;;;;;;;;;;;10454028;28;20035;-86
2022/01/09 18:17:37;;;;;;;7.18;5.32;;;;;;;;;;10457213;28;19911;-86
2022/01/09 18:22:38;;;;;;;8.77;5.15;;;;;;;;;;10458263;28;20037;-85
2022/01/09 18:27:39;;;;;;;8.88;6.13;;;;;;;;;;10466632;28;20121;-85
2022/01/09 18:32:41;;;;;;;8.07;5.75;;;;;;;;;;10456949;28;20122;-85
2022/01/09 18:37:43;;;;;;;9.40;5.97;;;;;;;;;;10456425;28;20033;-86
2022/01/09 18:42:44;;;;;;;7.45;4.85;;;;;;;;;;10453453;28;20043;-85
2022/01/09 18:47:45;;;;;;;8.00;5.07;;;;;;;;;;10454785;28;20033;-85
2022/01/09 18:52:47;;;;;;;;;;;;;;;;;;10462384;28;20055;-86
2022/01/09 18:57:48;;;;;;;8.30;4.68;;;;;;;;;;10466055;28;19913;-85
2022/01/09 19:02:49;;;;;;;6.15;4.20;;;;;;;;;;10471050;28;20044;-85
2022/01/09 19:07:50;;;;;;;6.75;4.57;;;;;;;;;;10453315;28;20056;-87
2022/01/09 19:12:51;;;;;;;6.65;4.28;;;;;;;;;;10447850;28;20123;-85
2022/01/09 19:17:52;;;;;;;;;;;;;;;;;;10450344;28;20140;-85
2022/01/09 19:22:57;;;;;;;6.30;3.65;;;;;;;;;;10464580;28;19905;-85
2022/01/09 19:27:58;;;;;;;8.65;4.47;;;;;;;;;;10448550;28;20029;-86
2022/01/09 19:32:59;;;;;;;6.07;3.92;;;;;;;;;;10451368;28;20025;-85
2022/01/09 19:38:00;;;;;;;6.10;4.10;;;;;;;;;;10458223;28;20041;-85
2022/01/09 19:43:01;;;;;;;;;;;;;;;;;;10460565;28;20088;-85
2022/01/09 19:48:03;;;;;;;5.95;3.97;;;;;;;;;;10457954;28;19909;-86
2022/01/09 19:53:04;;;;;;;6.95;3.88;;;;;;;;;;10465664;28;20040;-85
2022/01/09 19:58:06;;;;;;;5.82;3.17;;;;;;;;;;10465010;28;20479;-85
2022/01/09 20:03:08;;;;;;;5.40;3.55;;;;;;;;;;10462730;28;20407;-86
2022/01/09 20:08:09;;;;;;;6.05;3.55;;;;;;;;;;10460021;28;20037;-85
2022/01/09 20:13:10;;;;;;;;;;;;;;;;;;10455474;28;20032;-85
2022/01/09 20:18:11;;;;;;;6.10;3.58;;;;;;;;;;10453066;28;19912;-85
2022/01/09 20:23:11;;;;;;;;;;;;;;;;;;10455024;28;20037;-85
2022/01/09 20:28:13;;;;;;;4.78;3.45;;;;;;;;;;10454919;28;19919;-85
2022/01/09 20:33:14;;;;;;;7.63;4.00;;;;;;;;;;10452542;28;20394;-86
2022/01/09 20:38:15;;;;;;;;;;;;;;;;;;10453478;28;20041;-85
2022/01/09 20:43:17;;;;;;;6.15;3.50;;;;;;;;;;10451536;28;19913;-85
2022/01/09 20:48:21;;;;;;;4.75;3.05;;;;;;;;;;10451336;28;20044;-85
2022/01/09 20:53:22;;;;;;;5.78;3.22;;;;;;;;;;10452616;28;20045;-85
2022/01/09 20:58:23;;;;;;;7.25;3.53;;;;;;;;;;10470621;28;20492;-85
2022/01/09 21:03:24;;;;;;;;;;;;;;;;;;10468394;28;21330;-85
2022/01/09 21:08:38;;;;;;;5.63;3.60;;;;;;;;;;10512064;28;19943;-84
2022/01/09 21:13:41;;;;;;;5.50;3.55;;;;;;;;;;10463928;28;20124;-86
